createdAt,value
2022-09-03T00:08:52.223Z,98970.45
2022-09-03T00:19:02.989Z,98967.41
2022-09-03T00:29:11.323Z,98960.26
2022-09-03T00:39:20.817Z,98955.27
2022-09-03T00:49:26.979Z,98951.54
2022-09-03T00:59:32.395Z,98943.50
2022-09-03T01:09:49.134Z,98950.70
2022-09-03T01:20:00.381Z,98949.83
2022-09-03T01:30:07.328Z,98953.56
2022-09-03T01:40:13.140Z,98941.65
2022-09-03T01:50:23.890Z,98944.89
2022-09-03T02:00:34.290Z,98938.59
2022-09-03T02:10:42.776Z,98943.05
2022-09-03T02:20:49.236Z,98942.29
2022-09-03T02:30:57.179Z,98939.83
2022-09-03T02:41:04.271Z,98940.37
2022-09-03T02:51:14.063Z,98932.06
2022-09-03T03:01:24.176Z,98929.13
2022-09-03T03:11:32.072Z,98938.84
2022-09-03T03:21:38.948Z,98936.39
2022-09-03T03:31:46.235Z,98950.70
2022-09-03T03:41:53.724Z,98952.39
2022-09-03T03:52:03.266Z,98957.20
2022-09-03T04:02:10.611Z,98948.86
2022-09-03T04:12:19.333Z,98950.05
2022-09-03T04:22:26.320Z,98951.46
2022-09-03T04:32:52.536Z,98950.98
2022-09-03T04:42:58.617Z,98948.95
2022-09-03T04:53:08.298Z,98945.04
2022-09-03T05:03:15.432Z,98954.62
2022-09-03T05:13:22.610Z,98959.52
2022-09-03T05:23:29.509Z,98960.73
2022-09-03T05:33:36.840Z,98968.02
2022-09-03T05:43:45.177Z,98970.08
2022-09-03T05:53:53.607Z,98969.98
2022-09-03T06:04:02.575Z,98973.10
2022-09-03T06:14:12.104Z,98969.27
2022-09-03T06:24:20.402Z,98970.86
2022-09-03T06:34:28.837Z,98961.19
2022-09-03T06:44:36.055Z,98962.48
2022-09-03T06:54:43.144Z,98972.42
2022-09-03T07:04:49.716Z,98971.44
2022-09-03T07:14:56.737Z,98971.63
2022-09-03T07:25:04.053Z,98975.09
2022-09-03T07:35:10.246Z,98982.32
2022-09-03T07:45:16.461Z,98982.08
2022-09-03T07:55:23.565Z,98975.02
2022-09-03T08:05:33.396Z,98977.80
2022-09-03T08:15:43.428Z,98987.94
2022-09-03T08:25:50.526Z,98993.52
2022-09-03T08:35:57.623Z,98994.52
2022-09-03T08:46:05.412Z,98993.27
2022-09-03T08:56:14.845Z,98978.88
2022-09-03T09:06:21.826Z,98972.39
2022-09-03T09:16:26.841Z,98969.01
2022-09-03T09:26:34.774Z,98961.29
2022-09-03T09:36:44.059Z,98958.38
2022-09-03T09:46:54.789Z,98968.69
2022-09-03T09:57:07.471Z,98959.24
2022-09-03T10:07:24.148Z,98962.95
2022-09-03T10:17:37.169Z,98951.67
2022-09-03T10:27:45.217Z,98942.92
2022-09-03T10:37:50.782Z,98935.43
2022-09-03T10:48:06.643Z,98937.20
2022-09-03T10:58:26.523Z,98933.56
2022-09-03T11:08:35.323Z,98925.00
2022-09-03T11:18:47.320Z,98924.48
2022-09-03T11:28:57.031Z,98931.98
2022-09-03T11:39:16.900Z,98937.04
2022-09-03T11:49:27.751Z,98926.89
2022-09-03T11:59:35.031Z,98911.13
2022-09-03T12:10:09.973Z,98907.04
2022-09-03T12:20:17.598Z,98897.69
2022-09-03T12:30:26.128Z,98886.80
2022-09-03T12:40:33.824Z,98884.89
2022-09-03T12:50:42.421Z,98891.23
2022-09-03T13:01:05.099Z,98887.91
2022-09-03T13:11:11.073Z,98882.87
2022-09-03T13:21:20.220Z,98884.66
2022-09-03T13:31:27.282Z,98886.75
2022-09-03T13:41:36.419Z,98888.14
2022-09-03T13:51:48.145Z,98885.55
2022-09-03T14:02:04.520Z,98884.44
2022-09-03T14:12:11.593Z,98879.39
2022-09-03T14:22:16.591Z,98877.50
2022-09-03T14:32:25.851Z,98866.22
2022-09-03T14:42:38.457Z,98868.50
2022-09-03T14:53:00.482Z,98863.91
2022-09-03T15:03:23.812Z,98859.80
2022-09-03T15:13:31.602Z,98852.63
2022-09-03T15:23:49.155Z,98849.88
2022-09-03T15:33:59.501Z,98855.74
2022-09-03T15:44:09.254Z,98852.73
2022-09-03T15:54:16.180Z,98854.31
2022-09-03T16:04:24.969Z,98854.38
2022-09-03T16:14:31.166Z,98855.98
2022-09-03T16:24:35.392Z,98852.48
2022-09-03T16:34:42.309Z,98857.09
2022-09-03T16:44:50.786Z,98862.17
2022-09-03T16:55:06.835Z,98865.29
2022-09-03T17:05:20.608Z,98860.27
2022-09-03T17:15:35.787Z,98862.73
2022-09-03T17:25:51.675Z,98860.96
2022-09-03T17:35:58.283Z,98869.33
2022-09-03T17:46:13.601Z,98880.88
2022-09-03T17:56:26.351Z,98889.59
2022-09-03T18:06:32.251Z,98893.14
2022-09-03T18:16:46.996Z,98903.20
2022-09-03T18:27:11.570Z,98913.08
2022-09-03T18:37:35.823Z,98917.79
2022-09-03T18:48:07.476Z,98925.62
2022-09-03T18:58:42.899Z,98921.80
2022-09-03T19:09:06.427Z,98917.67
2022-09-03T19:19:39.468Z,98922.83
2022-09-03T19:30:13.104Z,98921.06
2022-09-03T19:40:56.032Z,98922.75
2022-09-03T19:51:24.092Z,98930.52
2022-09-03T20:01:52.101Z,98941.99
2022-09-03T20:12:03.187Z,98944.70
2022-09-03T20:22:18.720Z,98943.71
2022-09-03T20:43:04.362Z,98957.33
2022-09-03T20:53:14.788Z,98956.59
2022-09-03T21:03:19.840Z,98950.98
2022-09-03T21:13:38.718Z,98950.75
2022-09-03T21:23:48.142Z,98958.59
2022-09-03T21:33:57.032Z,98963.23
2022-09-03T21:44:02.083Z,98978.35
2022-09-03T21:54:15.311Z,98985.23
2022-09-03T22:04:22.496Z,98989.52
2022-09-03T22:14:37.205Z,98994.11
2022-09-03T22:24:42.392Z,98991.14
2022-09-03T22:35:06.875Z,98983.39
2022-09-03T22:45:16.892Z,98988.21
2022-09-03T22:55:23.226Z,98993.14
2022-09-03T23:05:41.440Z,98989.17
2022-09-03T23:16:00.111Z,98986.50
2022-09-03T23:26:10.121Z,98985.89
2022-09-03T23:36:43.363Z,98984.48
2022-09-03T23:46:56.802Z,98989.99
2022-09-03T23:57:13.477Z,99004.80
